createdAt,value
2022-10-29T00:02:01.624Z,11.27
2022-10-29T00:04:28.326Z,10.00
2022-10-29T00:06:54.861Z,7.05
2022-10-29T00:09:22.399Z,13.98
2022-10-29T00:11:48.934Z,11.18
2022-10-29T00:14:16.713Z,10.75
2022-10-29T00:16:44.674Z,13.40
2022-10-29T00:19:11.347Z,12.32
2022-10-29T00:21:39.624Z,13.77
2022-10-29T00:24:06.680Z,10.25
2022-10-29T00:26:33.541Z,7.50
2022-10-29T00:29:00.043Z,14.90
2022-10-29T00:31:26.733Z,13.07
2022-10-29T00:33:54.912Z,8.30
2022-10-29T00:36:24.427Z,14.02
2022-10-29T00:38:51.119Z,10.07
2022-10-29T00:41:20.954Z,8.32
2022-10-29T00:44:11.916Z,7.53
2022-10-29T00:46:40.582Z,8.23
2022-10-29T00:49:08.414Z,9.10
2022-10-29T00:51:35.998Z,10.27
2022-10-29T00:54:06.356Z,7.28
2022-10-29T00:56:37.702Z,11.55
2022-10-29T00:59:06.903Z,10.23
2022-10-29T01:01:33.653Z,13.02
2022-10-29T01:04:00.498Z,9.10
2022-10-29T01:06:28.926Z,13.43
2022-10-29T01:08:55.523Z,13.73
2022-10-29T01:11:34.947Z,10.48
2022-10-29T01:14:30.491Z,22.48
2022-10-29T01:17:05.225Z,8.13
2022-10-29T01:19:52.233Z,18.83
2022-10-29T01:22:55.622Z,11.57
2022-10-29T01:26:01.570Z,6.85
2022-10-29T01:29:00.845Z,11.52
2022-10-29T01:31:36.288Z,6.25
2022-10-29T01:34:11.141Z,16.80
2022-10-29T01:36:53.857Z,8.70
2022-10-29T01:39:29.132Z,11.63
2022-10-29T01:42:18.501Z,13.98
2022-10-29T01:45:00.686Z,9.45
2022-10-29T01:47:31.782Z,7.85
2022-10-29T01:50:02.152Z,12.13
2022-10-29T01:52:32.646Z,11.93
2022-10-29T01:54:59.391Z,6.20
2022-10-29T01:57:30.288Z,8.23
2022-10-29T02:00:01.424Z,11.80
2022-10-29T02:02:48.363Z,9.15
2022-10-29T02:05:41.506Z,8.55
2022-10-29T02:08:21.118Z,12.07
2022-10-29T02:10:50.607Z,13.50
2022-10-29T02:13:19.206Z,14.93
2022-10-29T02:15:49.879Z,13.15
2022-10-29T02:18:17.023Z,9.70
2022-10-29T02:20:45.363Z,8.90
2022-10-29T02:23:13.074Z,11.07
2022-10-29T02:25:39.649Z,6.15
2022-10-29T02:28:06.523Z,10.23
2022-10-29T02:30:33.302Z,7.93
2022-10-29T02:32:59.979Z,8.07
2022-10-29T02:35:26.934Z,9.38
2022-10-29T02:37:53.481Z,6.22
2022-10-29T02:40:20.033Z,7.32
2022-10-29T02:42:46.566Z,11.48
2022-10-29T02:45:13.090Z,9.15
2022-10-29T02:47:39.643Z,8.68
2022-10-29T02:50:06.921Z,11.50
2022-10-29T02:52:33.419Z,8.95
2022-10-29T02:54:59.953Z,9.35
2022-10-29T02:57:26.490Z,12.48
2022-10-29T02:59:52.992Z,16.30
2022-10-29T03:02:19.661Z,14.07
2022-10-29T03:04:46.289Z,12.95
2022-10-29T03:07:12.816Z,12.45
2022-10-29T03:09:39.399Z,12.88
2022-10-29T03:12:06.456Z,7.47
2022-10-29T03:14:32.989Z,11.13
2022-10-29T03:16:59.556Z,8.82
2022-10-29T03:19:26.115Z,9.98
2022-10-29T03:21:52.649Z,9.25
2022-10-29T03:24:19.226Z,15.05
2022-10-29T03:26:45.762Z,8.60
2022-10-29T03:29:12.273Z,9.10
2022-10-29T03:31:39.048Z,13.40
2022-10-29T03:34:05.756Z,12.98
2022-10-29T03:36:32.326Z,13.93
2022-10-29T03:38:59.080Z,10.25
2022-10-29T03:41:25.644Z,16.33
2022-10-29T03:43:52.267Z,9.45
2022-10-29T03:46:18.987Z,10.48
2022-10-29T03:48:48.827Z,6.75
2022-10-29T03:51:15.336Z,9.90
2022-10-29T03:53:42.538Z,9.75
2022-10-29T03:56:09.954Z,14.10
2022-10-29T03:58:40.010Z,7.13
2022-10-29T04:01:08.611Z,14.80
2022-10-29T04:03:36.740Z,8.95
2022-10-29T04:06:10.326Z,14.27
2022-10-29T04:08:37.342Z,8.75
2022-10-29T04:11:04.058Z,8.30
2022-10-29T04:13:30.710Z,10.65
2022-10-29T04:15:57.275Z,8.82
2022-10-29T04:18:24.245Z,11.77
2022-10-29T04:22:45.389Z,10.35
2022-10-29T04:29:15.713Z,6.07
2022-10-29T04:31:42.235Z,8.93
2022-10-29T04:34:08.810Z,15.48
2022-10-29T04:36:35.391Z,9.55
2022-10-29T04:39:02.127Z,11.32
2022-10-29T04:41:28.683Z,11.95
2022-10-29T04:43:55.252Z,9.63
2022-10-29T04:46:21.795Z,8.10
2022-10-29T04:48:48.333Z,6.47
2022-10-29T04:51:25.796Z,10.73
2022-10-29T04:53:52.505Z,8.75
2022-10-29T04:56:19.238Z,12.85
2022-10-29T04:58:45.759Z,15.75
2022-10-29T05:01:12.420Z,11.73
2022-10-29T05:03:39.082Z,7.70
2022-10-29T05:06:06.379Z,11.82
2022-10-29T05:08:33.455Z,12.20
2022-10-29T05:11:04.696Z,10.73
2022-10-29T05:13:31.691Z,6.70
2022-10-29T05:15:58.570Z,8.98
2022-10-29T05:18:25.166Z,12.98
2022-10-29T05:20:55.551Z,7.82
2022-10-29T05:23:23.126Z,17.92
2022-10-29T05:25:51.563Z,12.02
2022-10-29T05:28:20.429Z,10.02
2022-10-29T05:30:51.471Z,14.30
2022-10-29T05:33:20.884Z,11.77
2022-10-29T05:35:48.232Z,18.60
2022-10-29T05:38:15.377Z,13.25
2022-10-29T05:40:44.774Z,12.88
2022-10-29T05:43:12.724Z,18.70
2022-10-29T05:45:39.457Z,13.70
2022-10-29T05:48:06.708Z,19.17
2022-10-29T05:50:34.529Z,19.10
2022-10-29T05:53:03.663Z,13.65
2022-10-29T05:55:32.021Z,14.95
2022-10-29T05:58:04.464Z,17.55
2022-10-29T06:00:33.956Z,17.77
2022-10-29T06:03:00.779Z,15.80
2022-10-29T06:05:27.986Z,13.43
2022-10-29T06:07:58.941Z,19.65
2022-10-29T06:10:27.754Z,20.13
2022-10-29T06:12:54.482Z,23.90
2022-10-29T06:15:21.400Z,20.65
2022-10-29T06:17:48.457Z,24.42
2022-10-29T06:20:18.390Z,16.75
2022-10-29T06:22:46.329Z,14.55
2022-10-29T06:25:12.907Z,18.83
2022-10-29T06:27:39.437Z,23.35
2022-10-29T06:30:06.962Z,16.70
2022-10-29T06:32:33.499Z,19.27
2022-10-29T06:35:00.008Z,19.40
2022-10-29T06:37:26.640Z,22.80
2022-10-29T06:39:53.170Z,16.85
2022-10-29T06:42:19.721Z,15.48
2022-10-29T06:44:46.266Z,20.25
2022-10-29T06:47:12.812Z,16.55
2022-10-29T06:49:39.333Z,15.90
2022-10-29T06:52:05.836Z,19.75
2022-10-29T06:54:32.366Z,16.95
2022-10-29T06:56:58.870Z,14.90
2022-10-29T06:59:25.446Z,17.63
2022-10-29T07:01:52.045Z,16.52
2022-10-29T07:04:18.955Z,12.40
2022-10-29T07:06:45.576Z,14.10
2022-10-29T07:09:12.233Z,16.40
2022-10-29T07:11:39.208Z,15.48
2022-10-29T07:14:08.318Z,18.10
2022-10-29T07:19:26.017Z,19.98
2022-10-29T07:21:52.615Z,14.23
2022-10-29T07:24:19.180Z,17.05
2022-10-29T07:26:45.755Z,15.95
2022-10-29T07:29:12.320Z,22.45
2022-10-29T07:31:38.838Z,13.27
2022-10-29T07:34:05.395Z,15.60
2022-10-29T07:36:32.022Z,15.32
2022-10-29T07:38:58.775Z,13.57
2022-10-29T07:41:26.987Z,15.20
2022-10-29T07:43:53.482Z,16.15
2022-10-29T07:46:22.044Z,18.48
2022-10-29T07:48:48.545Z,22.00
2022-10-29T07:51:15.405Z,15.38
2022-10-29T07:53:41.921Z,25.27
2022-10-29T07:56:08.478Z,17.90
2022-10-29T07:58:34.990Z,17.67
2022-10-29T08:01:01.661Z,16.55
2022-10-29T08:03:28.206Z,15.70
2022-10-29T08:05:59.221Z,17.95
2022-10-29T08:08:25.865Z,12.63
2022-10-29T08:10:52.419Z,12.10
2022-10-29T08:13:19.031Z,16.35
2022-10-29T08:15:48.647Z,18.90
2022-10-29T08:18:16.776Z,20.92
2022-10-29T08:20:43.831Z,27.38
2022-10-29T08:23:10.447Z,23.75
2022-10-29T08:25:41.309Z,25.17
2022-10-29T08:28:12.191Z,32.92
2022-10-29T08:30:39.559Z,27.80
2022-10-29T08:33:06.318Z,24.88
2022-10-29T08:35:33.806Z,27.15
2022-10-29T08:38:00.543Z,27.45
2022-10-29T08:40:27.022Z,28.02
2022-10-29T08:43:19.263Z,21.48
2022-10-29T08:45:49.198Z,31.80
2022-10-29T08:48:31.550Z,20.95
2022-10-29T08:51:26.834Z,23.27
2022-10-29T08:54:24.901Z,23.45
2022-10-29T08:56:47.599Z,18.92
2022-10-29T08:59:18.358Z,22.48
2022-10-29T09:01:46.690Z,20.88
2022-10-29T09:04:29.337Z,20.27
2022-10-29T09:07:34.471Z,19.50
2022-10-29T09:10:03.793Z,16.45
2022-10-29T09:12:52.428Z,16.27
2022-10-29T09:15:37.713Z,15.60
2022-10-29T09:18:29.168Z,15.10
2022-10-29T09:21:08.447Z,22.15
2022-10-29T09:23:54.803Z,16.38
2022-10-29T09:26:50.523Z,13.15
2022-10-29T09:29:35.642Z,19.75
2022-10-29T09:32:34.313Z,15.38
2022-10-29T09:35:05.689Z,16.33
2022-10-29T09:37:49.588Z,14.48
2022-10-29T09:40:33.342Z,28.13
2022-10-29T09:43:06.994Z,19.98
2022-10-29T09:45:57.139Z,23.23
2022-10-29T09:48:33.464Z,18.60
2022-10-29T09:51:13.649Z,15.40
2022-10-29T09:53:40.259Z,15.05
2022-10-29T09:56:08.337Z,16.63
2022-10-29T09:58:39.779Z,24.20
2022-10-29T10:01:06.420Z,13.60
2022-10-29T10:03:45.697Z,18.05
2022-10-29T10:06:14.937Z,21.02
2022-10-29T10:09:02.152Z,24.38
2022-10-29T10:11:49.059Z,17.10
2022-10-29T10:14:23.959Z,19.02
2022-10-29T10:16:58.747Z,16.83
2022-10-29T10:19:28.774Z,15.55
2022-10-29T10:22:03.734Z,18.25
2022-10-29T10:24:39.981Z,20.35
2022-10-29T10:27:21.359Z,14.18
2022-10-29T10:30:11.864Z,13.80
2022-10-29T10:32:38.371Z,16.33
2022-10-29T10:35:26.363Z,19.65
2022-10-29T10:37:53.706Z,17.58
2022-10-29T10:40:24.676Z,22.60
2022-10-29T10:42:54.586Z,19.70
2022-10-29T10:45:27.774Z,17.42
2022-10-29T10:47:58.994Z,18.13
2022-10-29T10:50:32.147Z,16.60
2022-10-29T10:53:02.709Z,12.10
2022-10-29T10:55:34.793Z,19.63
2022-10-29T10:58:42.922Z,19.55
2022-10-29T11:01:14.854Z,17.95
2022-10-29T11:03:46.208Z,20.27
2022-10-29T11:06:15.420Z,12.07
2022-10-29T11:09:11.657Z,17.98
2022-10-29T11:12:15.509Z,14.65
2022-10-29T11:14:47.113Z,15.65
2022-10-29T11:17:30.590Z,15.70
2022-10-29T11:20:06.032Z,15.40
2022-10-29T11:22:55.232Z,19.70
2022-10-29T11:25:41.355Z,15.75
2022-10-29T11:28:31.546Z,20.25
2022-10-29T11:31:16.090Z,20.35
2022-10-29T11:33:45.573Z,19.23
2022-10-29T11:36:26.919Z,14.13
2022-10-29T11:38:56.177Z,18.35
2022-10-29T11:41:40.630Z,21.48
2022-10-29T11:44:13.750Z,20.10
2022-10-29T11:47:26.516Z,17.63
2022-10-29T11:50:07.969Z,20.98
2022-10-29T11:53:03.412Z,19.58
2022-10-29T11:55:43.482Z,15.73
2022-10-29T11:58:18.842Z,20.17
2022-10-29T12:01:01.456Z,13.63
2022-10-29T12:03:43.048Z,17.63
2022-10-29T12:06:34.876Z,16.50
2022-10-29T12:09:21.482Z,26.17
2022-10-29T12:12:22.300Z,13.48
2022-10-29T12:14:56.763Z,16.27
2022-10-29T12:17:46.958Z,17.30
2022-10-29T12:20:39.662Z,17.20
2022-10-29T12:23:18.732Z,16.10
2022-10-29T12:25:55.585Z,18.48
2022-10-29T12:28:56.760Z,20.25
2022-10-29T12:31:42.370Z,16.05
2022-10-29T12:34:28.688Z,16.42
2022-10-29T12:37:03.042Z,15.10
2022-10-29T12:39:44.662Z,14.98
2022-10-29T12:42:25.682Z,18.38
2022-10-29T12:45:30.190Z,13.80
2022-10-29T12:48:12.222Z,17.48
2022-10-29T12:50:51.090Z,23.23
2022-10-29T12:53:55.976Z,18.48
2022-10-29T12:56:23.847Z,17.48
2022-10-29T12:58:52.827Z,16.83
2022-10-29T13:01:38.367Z,15.63
2022-10-29T13:04:23.590Z,15.25
2022-10-29T13:07:24.101Z,16.15
2022-10-29T13:10:28.506Z,16.52
2022-10-29T13:12:55.149Z,21.20
2022-10-29T13:15:24.257Z,14.88
2022-10-29T13:17:53.847Z,17.67
2022-10-29T13:20:51.683Z,19.52
2022-10-29T13:23:23.998Z,15.82
2022-10-29T13:25:55.191Z,22.80
2022-10-29T13:28:21.962Z,15.15
2022-10-29T13:30:53.050Z,15.57
2022-10-29T13:33:28.969Z,22.25
2022-10-29T13:35:55.471Z,16.95
2022-10-29T13:38:51.203Z,18.25
2022-10-29T13:41:27.977Z,20.80
2022-10-29T13:44:09.129Z,19.65
2022-10-29T13:47:00.866Z,15.38
2022-10-29T13:49:36.668Z,19.85
2022-10-29T13:52:08.633Z,18.38
2022-10-29T13:54:51.912Z,14.98
2022-10-29T13:57:21.194Z,18.13
2022-10-29T13:59:54.385Z,14.25
2022-10-29T14:02:42.900Z,15.80
2022-10-29T14:05:15.168Z,17.73
2022-10-29T14:07:57.137Z,19.55
2022-10-29T14:10:28.419Z,20.88
2022-10-29T14:13:01.007Z,23.15
2022-10-29T14:15:27.675Z,20.20
2022-10-29T14:17:54.216Z,17.90
2022-10-29T14:20:23.584Z,19.38
2022-10-29T14:22:50.374Z,22.15
2022-10-29T14:25:35.828Z,24.15
2022-10-29T14:28:17.673Z,19.15
2022-10-29T14:30:48.744Z,19.45
2022-10-29T14:33:22.438Z,14.10
2022-10-29T14:35:49.250Z,18.08
2022-10-29T14:38:16.893Z,18.10
2022-10-29T14:40:46.013Z,14.00
2022-10-29T14:43:22.692Z,18.92
2022-10-29T14:45:49.534Z,18.52
2022-10-29T14:48:18.518Z,14.00
2022-10-29T14:50:48.099Z,16.08
2022-10-29T14:53:32.787Z,19.77
2022-10-29T14:56:02.013Z,14.75
2022-10-29T14:58:30.889Z,18.55
2022-10-29T15:01:03.387Z,13.88
2022-10-29T15:03:32.744Z,14.07
2022-10-29T15:06:16.242Z,11.20
2022-10-29T15:08:45.224Z,12.25
2022-10-29T15:11:33.874Z,12.68
2022-10-29T15:14:02.025Z,16.92
2022-10-29T15:16:30.051Z,17.80
2022-10-29T15:18:57.994Z,18.35
2022-10-29T15:21:31.470Z,20.48
2022-10-29T15:24:03.923Z,12.63
2022-10-29T15:26:30.786Z,17.63
2022-10-29T15:28:57.683Z,16.40
2022-10-29T15:31:43.813Z,13.13
2022-10-29T15:34:16.882Z,15.40
2022-10-29T15:36:51.806Z,14.82
2022-10-29T15:39:27.108Z,16.77
2022-10-29T15:42:00.427Z,15.32
2022-10-29T15:44:29.837Z,16.17
2022-10-29T15:46:59.227Z,17.80
2022-10-29T15:49:32.380Z,18.42
2022-10-29T15:52:00.481Z,11.30
2022-10-29T15:54:28.213Z,13.88
2022-10-29T15:56:54.814Z,12.95
2022-10-29T15:59:25.558Z,13.60
2022-10-29T16:01:53.816Z,15.48
2022-10-29T16:04:20.419Z,14.70
2022-10-29T16:06:47.026Z,17.98
2022-10-29T16:09:19.631Z,14.48
2022-10-29T16:11:46.563Z,15.35
2022-10-29T16:14:13.153Z,13.45
2022-10-29T16:16:39.678Z,13.15
2022-10-29T16:19:06.233Z,21.10
2022-10-29T16:21:32.918Z,14.65
2022-10-29T16:23:59.475Z,14.27
2022-10-29T16:26:26.435Z,15.45
2022-10-29T16:28:53.394Z,14.35
2022-10-29T16:31:25.390Z,23.77
2022-10-29T16:33:54.696Z,19.60
2022-10-29T16:36:21.267Z,14.10
2022-10-29T16:38:47.878Z,17.77
2022-10-29T16:41:16.484Z,14.25
2022-10-29T16:43:43.797Z,14.65
2022-10-29T16:46:11.299Z,14.30
2022-10-29T16:48:37.948Z,15.02
2022-10-29T16:51:05.095Z,13.95
2022-10-29T16:53:31.718Z,16.33
2022-10-29T16:55:58.332Z,15.25
2022-10-29T16:58:25.119Z,18.52
2022-10-29T17:01:00.929Z,17.35
2022-10-29T17:03:27.533Z,17.27
2022-10-29T17:05:54.066Z,21.23
2022-10-29T17:08:20.684Z,20.27
2022-10-29T17:10:47.224Z,14.82
2022-10-29T17:13:14.290Z,15.55
2022-10-29T17:15:41.117Z,17.88
2022-10-29T17:18:08.034Z,18.63
2022-10-29T17:20:34.687Z,21.70
2022-10-29T17:23:01.237Z,18.52
2022-10-29T17:25:27.822Z,16.10
2022-10-29T17:27:54.772Z,19.95
2022-10-29T17:30:21.544Z,18.00
2022-10-29T17:32:48.149Z,18.30
2022-10-29T17:35:14.701Z,16.88
2022-10-29T17:37:41.248Z,21.23
2022-10-29T17:40:08.543Z,19.48
2022-10-29T17:42:35.815Z,18.38
2022-10-29T17:45:02.387Z,17.58
2022-10-29T17:47:30.174Z,18.15
2022-10-29T17:49:56.773Z,23.00
2022-10-29T17:52:23.325Z,21.10
2022-10-29T17:54:49.883Z,21.30
2022-10-29T17:57:16.388Z,17.13
2022-10-29T17:59:42.927Z,20.33
2022-10-29T18:02:11.037Z,23.90
2022-10-29T18:04:37.704Z,16.75
2022-10-29T18:07:04.237Z,28.67
2022-10-29T18:09:30.801Z,22.10
2022-10-29T18:11:57.433Z,19.30
2022-10-29T18:14:24.015Z,21.17
2022-10-29T18:16:50.542Z,19.48
2022-10-29T18:19:17.294Z,18.33
2022-10-29T18:21:43.889Z,16.60
2022-10-29T18:24:10.768Z,15.90
2022-10-29T18:26:37.373Z,19.75
2022-10-29T18:29:08.303Z,21.58
2022-10-29T18:31:35.413Z,19.05
2022-10-29T18:34:05.702Z,24.70
2022-10-29T18:36:32.612Z,17.00
2022-10-29T18:38:59.638Z,15.68
2022-10-29T18:44:16.947Z,16.95
2022-10-29T18:46:43.467Z,15.52
2022-10-29T18:49:11.535Z,16.80
2022-10-29T18:51:38.442Z,17.33
2022-10-29T18:54:05.594Z,18.17
2022-10-29T18:56:32.283Z,18.13
2022-10-29T18:58:59.661Z,16.60
2022-10-29T19:01:30.236Z,17.67
2022-10-29T19:03:59.297Z,13.77
2022-10-29T19:06:28.235Z,17.90
2022-10-29T19:08:55.252Z,20.20
2022-10-29T19:14:16.048Z,24.90
2022-10-29T19:16:42.659Z,19.30
2022-10-29T19:19:12.218Z,16.10
2022-10-29T19:21:39.681Z,14.55
2022-10-29T19:24:07.276Z,21.48
2022-10-29T19:26:35.442Z,16.75
2022-10-29T19:29:03.831Z,22.00
2022-10-29T19:31:32.071Z,23.45
2022-10-29T19:34:01.056Z,17.50
2022-10-29T19:36:28.991Z,16.83
2022-10-29T19:38:56.118Z,22.20
2022-10-29T19:41:23.346Z,20.85
2022-10-29T19:43:50.099Z,21.25
2022-10-29T19:46:22.756Z,18.52
2022-10-29T19:48:50.715Z,16.73
2022-10-29T19:51:17.703Z,16.00
2022-10-29T19:53:44.734Z,19.58
2022-10-29T19:56:12.926Z,18.10
2022-10-29T19:58:39.470Z,18.92
2022-10-29T20:01:08.882Z,20.95
2022-10-29T20:03:36.466Z,20.88
2022-10-29T20:06:03.371Z,18.90
2022-10-29T20:08:29.941Z,19.83
2022-10-29T20:10:57.532Z,16.60
2022-10-29T20:13:24.559Z,18.73
2022-10-29T20:15:51.989Z,16.83
2022-10-29T20:18:18.677Z,17.77
2022-10-29T20:20:45.523Z,19.17
2022-10-29T20:23:13.008Z,25.15
2022-10-29T20:25:39.530Z,21.08
2022-10-29T20:28:06.076Z,21.98
2022-10-29T20:30:32.634Z,20.75
2022-10-29T20:32:59.437Z,26.73
2022-10-29T20:35:26.221Z,23.77
2022-10-29T20:37:52.783Z,17.20
2022-10-29T20:40:19.390Z,19.75
2022-10-29T20:42:49.736Z,24.52
2022-10-29T20:45:17.217Z,19.35
2022-10-29T20:47:43.727Z,19.55
2022-10-29T20:50:10.302Z,20.75
2022-10-29T20:52:36.896Z,25.85
2022-10-29T20:55:03.715Z,20.30
2022-10-29T20:57:31.356Z,18.45
2022-10-29T20:59:58.537Z,25.88
2022-10-29T21:02:25.570Z,25.05
2022-10-29T21:04:52.247Z,28.38
2022-10-29T21:07:18.819Z,19.98
2022-10-29T21:09:45.382Z,25.15
2022-10-29T21:12:11.899Z,22.35
2022-10-29T21:14:38.425Z,20.17
2022-10-29T21:17:05.549Z,23.60
2022-10-29T21:19:36.256Z,24.83
2022-10-29T21:22:02.857Z,22.83
2022-10-29T21:24:29.418Z,26.65
2022-10-29T21:26:55.979Z,19.05
2022-10-29T21:29:23.097Z,23.63
2022-10-29T21:31:49.778Z,24.45
2022-10-29T21:34:16.295Z,26.38
2022-10-29T21:36:42.820Z,20.05
2022-10-29T21:39:09.369Z,24.50
2022-10-29T21:41:35.894Z,23.88
2022-10-29T21:44:02.447Z,26.95
2022-10-29T21:46:29.018Z,20.50
2022-10-29T21:48:56.406Z,25.85
2022-10-29T21:51:22.990Z,21.70
2022-10-29T21:53:49.605Z,22.25
2022-10-29T21:56:16.454Z,22.27
2022-10-29T21:58:43.790Z,27.23
2022-10-29T22:01:15.502Z,29.27
2022-10-29T22:03:43.913Z,20.90
2022-10-29T22:06:22.661Z,26.55
2022-10-29T22:08:57.042Z,27.15
2022-10-29T22:11:24.814Z,22.55
2022-10-29T22:13:52.620Z,24.85
2022-10-29T22:16:19.652Z,23.38
2022-10-29T22:18:49.697Z,24.77
2022-10-29T22:21:19.748Z,25.13
2022-10-29T22:23:49.443Z,26.60
2022-10-29T22:26:18.080Z,19.23
2022-10-29T22:28:45.138Z,22.90
2022-10-29T22:31:11.740Z,19.40
2022-10-29T22:33:38.336Z,22.52
2022-10-29T22:36:10.007Z,20.30
2022-10-29T22:38:37.186Z,28.63
2022-10-29T22:41:11.741Z,22.95
2022-10-29T22:43:38.394Z,17.38
2022-10-29T22:46:06.264Z,22.85
2022-10-29T22:48:32.903Z,19.83
2022-10-29T22:51:12.894Z,19.02
2022-10-29T22:53:39.435Z,17.02
2022-10-29T22:56:06.445Z,25.17
2022-10-29T22:58:33.214Z,21.30
2022-10-29T23:01:07.149Z,20.15
2022-10-29T23:03:34.722Z,18.33
2022-10-29T23:06:03.536Z,23.25
2022-10-29T23:08:31.114Z,20.25
2022-10-29T23:10:58.987Z,21.17
2022-10-29T23:13:25.533Z,22.52
2022-10-29T23:15:53.041Z,18.20
2022-10-29T23:18:19.761Z,22.55
2022-10-29T23:20:46.302Z,19.27
2022-10-29T23:23:13.822Z,20.70
2022-10-29T23:25:44.106Z,17.17
2022-10-29T23:28:10.669Z,17.58
2022-10-29T23:30:37.229Z,18.25
2022-10-29T23:33:03.831Z,21.77
2022-10-29T23:35:30.377Z,21.70
2022-10-29T23:37:57.207Z,21.85
2022-10-29T23:40:24.007Z,14.43
2022-10-29T23:42:50.625Z,16.92
2022-10-29T23:45:17.414Z,17.60
2022-10-29T23:47:43.983Z,17.95
2022-10-29T23:50:10.622Z,21.45
2022-10-29T23:52:37.166Z,16.65
2022-10-29T23:55:03.929Z,16.60
2022-10-29T23:57:30.450Z,19.77
2022-10-29T23:59:56.969Z,16.42
